createdAt,value
2022-11-05T00:01:53.858Z,44.61
2022-11-05T00:04:38.696Z,44.52
2022-11-05T00:07:31.791Z,44.47
2022-11-05T00:10:00.810Z,44.81
2022-11-05T00:12:45.868Z,44.75
2022-11-05T00:15:30.577Z,44.77
2022-11-05T00:17:56.821Z,44.55
2022-11-05T00:20:23.121Z,44.87
2022-11-05T00:23:08.133Z,44.83
2022-11-05T00:25:36.972Z,44.99
2022-11-05T00:28:04.045Z,44.72
2022-11-05T00:30:30.584Z,44.83
2022-11-05T00:33:00.930Z,44.78
2022-11-05T00:35:27.506Z,44.87
2022-11-05T00:37:54.087Z,44.98
2022-11-05T00:40:20.496Z,44.99
2022-11-05T00:43:05.726Z,44.78
2022-11-05T00:45:32.006Z,45.05
2022-11-05T00:48:17.001Z,44.86
2022-11-05T00:50:43.420Z,45.00
2022-11-05T00:53:10.135Z,44.84
2022-11-05T00:55:38.209Z,44.67
2022-11-05T00:58:06.498Z,44.72
2022-11-05T01:00:34.702Z,45.03
2022-11-05T01:03:02.096Z,44.70
2022-11-05T01:05:28.932Z,45.02
2022-11-05T01:07:55.497Z,44.73
2022-11-05T01:10:22.719Z,44.76
2022-11-05T01:12:49.259Z,45.18
2022-11-05T01:15:16.315Z,44.60
2022-11-05T01:17:42.610Z,45.34
2022-11-05T01:20:09.349Z,44.92
2022-11-05T01:22:35.849Z,45.39
2022-11-05T01:25:02.194Z,45.03
2022-11-05T01:27:28.944Z,45.15
2022-11-05T01:29:55.236Z,45.28
2022-11-05T01:32:21.938Z,45.40
2022-11-05T01:34:48.403Z,44.83
2022-11-05T01:37:14.653Z,45.32
2022-11-05T01:39:40.918Z,44.81
2022-11-05T01:42:33.249Z,45.00
2022-11-05T01:45:17.417Z,45.27
2022-11-05T01:47:49.361Z,45.27
2022-11-05T01:50:34.422Z,45.38
2022-11-05T01:53:04.662Z,44.96
2022-11-05T01:55:35.334Z,45.14
2022-11-05T01:58:02.840Z,45.27
2022-11-05T02:00:29.201Z,45.05
2022-11-05T02:02:55.683Z,44.94
2022-11-05T02:05:23.262Z,45.31
2022-11-05T02:07:51.109Z,45.21
2022-11-05T02:10:20.388Z,45.04
2022-11-05T02:12:48.237Z,45.00
2022-11-05T02:15:16.812Z,45.41
2022-11-05T02:17:46.085Z,45.22
2022-11-05T02:20:18.658Z,45.13
2022-11-05T02:22:47.628Z,45.88
2022-11-05T02:25:32.240Z,45.41
2022-11-05T02:28:10.729Z,45.05
2022-11-05T02:30:55.526Z,45.89
2022-11-05T02:33:40.827Z,44.93
2022-11-05T02:36:07.267Z,45.48
2022-11-05T02:38:52.100Z,45.58
2022-11-05T02:41:30.212Z,45.54
2022-11-05T02:44:06.931Z,45.05
2022-11-05T02:46:36.020Z,45.06
2022-11-05T02:49:24.496Z,45.26
2022-11-05T02:51:58.328Z,45.97
2022-11-05T02:54:29.032Z,45.11
2022-11-05T02:56:56.528Z,45.02
2022-11-05T02:59:22.779Z,45.31
2022-11-05T03:01:49.937Z,45.55
2022-11-05T03:04:17.630Z,45.52
2022-11-05T03:06:47.110Z,45.64
2022-11-05T03:09:32.353Z,45.10
2022-11-05T03:12:05.412Z,44.81
2022-11-05T03:14:42.078Z,45.72
2022-11-05T03:17:18.179Z,45.60
2022-11-05T03:20:05.032Z,45.84
2022-11-05T03:22:35.160Z,45.48
2022-11-05T03:25:05.873Z,45.47
2022-11-05T03:27:35.211Z,44.84
2022-11-05T03:30:10.044Z,45.58
2022-11-05T03:32:39.510Z,45.75
2022-11-05T03:35:10.598Z,45.92
2022-11-05T03:37:39.797Z,45.79
2022-11-05T03:40:07.393Z,45.33
2022-11-05T03:42:35.748Z,46.07
2022-11-05T03:45:05.495Z,45.80
2022-11-05T03:47:35.225Z,45.36
2022-11-05T03:50:15.544Z,45.97
2022-11-05T03:52:47.012Z,44.99
2022-11-05T03:55:13.591Z,45.24
2022-11-05T03:57:43.244Z,45.62
2022-11-05T04:00:10.709Z,45.16
2022-11-05T04:02:37.500Z,45.30
2022-11-05T04:05:04.135Z,44.77
2022-11-05T04:07:49.055Z,44.79
2022-11-05T04:10:34.270Z,45.26
2022-11-05T04:13:19.516Z,45.50
2022-11-05T04:16:04.924Z,44.82
2022-11-05T04:18:31.205Z,45.00
2022-11-05T04:21:16.267Z,45.48
2022-11-05T04:24:01.747Z,45.27
2022-11-05T04:26:30.504Z,45.70
2022-11-05T04:29:15.546Z,45.50
2022-11-05T04:31:41.995Z,45.07
2022-11-05T04:34:08.423Z,45.53
2022-11-05T04:36:35.096Z,46.11
2022-11-05T04:39:01.573Z,45.64
2022-11-05T04:41:28.001Z,45.59
2022-11-05T04:43:54.460Z,45.82
2022-11-05T04:46:20.769Z,45.40
2022-11-05T04:48:47.186Z,45.26
2022-11-05T04:51:13.516Z,45.76
2022-11-05T04:53:39.777Z,45.69
2022-11-05T04:56:10.500Z,46.18
2022-11-05T04:58:40.753Z,46.03
2022-11-05T05:01:11.236Z,45.94
2022-11-05T05:03:37.688Z,46.15
2022-11-05T05:06:04.357Z,45.98
2022-11-05T05:08:30.662Z,45.78
2022-11-05T05:11:03.470Z,46.14
2022-11-05T05:13:29.927Z,45.65
2022-11-05T05:15:57.624Z,45.58
2022-11-05T05:18:26.309Z,45.32
2022-11-05T05:21:15.783Z,45.49
2022-11-05T05:23:42.350Z,46.29
2022-11-05T05:26:08.891Z,45.97
2022-11-05T05:28:35.432Z,45.57
2022-11-05T05:31:04.083Z,45.74
2022-11-05T05:33:30.542Z,45.51
2022-11-05T05:35:57.250Z,45.91
2022-11-05T05:38:23.895Z,45.69
2022-11-05T05:40:51.496Z,45.84
2022-11-05T05:43:18.196Z,46.04
2022-11-05T05:45:44.467Z,45.44
2022-11-05T05:48:10.694Z,45.50
2022-11-05T05:50:36.979Z,45.55
2022-11-05T05:53:03.663Z,45.52
2022-11-05T05:55:29.902Z,45.62
2022-11-05T05:57:56.344Z,45.67
2022-11-05T06:00:22.651Z,45.92
2022-11-05T06:02:50.585Z,46.42
2022-11-05T06:05:16.880Z,45.48
2022-11-05T06:07:43.095Z,45.96
2022-11-05T06:10:09.448Z,45.96
2022-11-05T06:12:35.733Z,45.84
2022-11-05T06:15:02.365Z,45.77
2022-11-05T06:17:28.594Z,45.92
2022-11-05T06:19:54.964Z,46.42
2022-11-05T06:22:22.487Z,46.02
2022-11-05T06:24:48.916Z,45.42
2022-11-05T06:27:15.349Z,46.31
2022-11-05T06:29:41.554Z,45.69
2022-11-05T06:32:08.200Z,46.45
2022-11-05T06:34:34.797Z,45.91
2022-11-05T06:37:01.252Z,45.50
2022-11-05T06:39:27.574Z,46.28
2022-11-05T06:44:40.267Z,45.89
2022-11-05T06:47:06.766Z,46.37
2022-11-05T06:49:33.180Z,46.38
2022-11-05T06:51:59.464Z,45.48
2022-11-05T06:54:25.740Z,46.02
2022-11-05T06:56:52.006Z,45.58
2022-11-05T06:59:18.218Z,46.39
2022-11-05T07:01:44.690Z,45.98
2022-11-05T07:04:14.205Z,46.57
2022-11-05T07:06:40.638Z,45.97
2022-11-05T07:09:06.904Z,46.25
2022-11-05T07:11:33.390Z,46.65
2022-11-05T07:14:01.099Z,46.57
2022-11-05T07:16:27.520Z,45.82
2022-11-05T07:18:55.819Z,45.86
2022-11-05T07:21:22.149Z,45.90
2022-11-05T07:23:48.751Z,46.35
2022-11-05T07:26:15.014Z,45.95
2022-11-05T07:28:41.375Z,46.18
2022-11-05T07:31:10.052Z,45.80
2022-11-05T07:33:36.874Z,45.85
2022-11-05T07:36:03.542Z,45.78
2022-11-05T07:38:29.830Z,45.88
2022-11-05T07:41:00.217Z,45.65
2022-11-05T07:43:26.490Z,46.16
2022-11-05T07:45:52.996Z,46.28
2022-11-05T07:48:20.826Z,46.50
2022-11-05T07:50:51.110Z,46.42
2022-11-05T07:53:17.417Z,45.89
2022-11-05T07:55:45.978Z,46.34
2022-11-05T07:58:12.380Z,46.53
2022-11-05T08:00:39.113Z,46.68
2022-11-05T08:03:09.002Z,46.40
2022-11-05T08:05:36.794Z,46.72
2022-11-05T08:08:03.619Z,47.05
2022-11-05T08:10:29.913Z,46.79
2022-11-05T08:12:56.472Z,46.23
2022-11-05T08:15:23.711Z,46.46
2022-11-05T08:17:50.405Z,46.86
2022-11-05T08:20:16.755Z,46.30
2022-11-05T08:22:43.619Z,46.26
2022-11-05T08:25:10.397Z,46.29
2022-11-05T08:27:37.120Z,46.58
2022-11-05T08:30:04.676Z,46.51
2022-11-05T08:32:30.905Z,46.23
2022-11-05T08:34:57.333Z,46.33
2022-11-05T08:37:23.754Z,46.40
2022-11-05T08:39:50.056Z,46.50
2022-11-05T08:42:16.412Z,46.63
2022-11-05T08:44:42.641Z,46.29
2022-11-05T08:47:09.063Z,46.69
2022-11-05T08:49:35.401Z,46.01
2022-11-05T08:52:01.742Z,46.28
2022-11-05T08:54:28.590Z,46.26
2022-11-05T08:56:55.015Z,46.39
2022-11-05T08:59:21.488Z,46.79
2022-11-05T09:01:50.696Z,46.47
2022-11-05T09:04:17.237Z,46.56
2022-11-05T09:06:46.055Z,46.20
2022-11-05T09:09:12.292Z,45.91
2022-11-05T09:12:10.096Z,45.97
2022-11-05T09:14:27.178Z,46.24
2022-11-05T09:16:53.523Z,46.19
2022-11-05T09:19:19.889Z,46.16
2022-11-05T09:21:46.103Z,46.14
2022-11-05T09:24:12.310Z,46.06
2022-11-05T09:26:38.603Z,46.13
2022-11-05T09:29:04.916Z,46.36
2022-11-05T09:31:31.579Z,45.90
2022-11-05T09:33:57.932Z,46.02
2022-11-05T09:36:24.358Z,45.92
2022-11-05T09:38:50.630Z,45.92
2022-11-05T09:41:26.951Z,46.21
2022-11-05T09:44:04.789Z,45.59
2022-11-05T09:46:40.837Z,45.66
2022-11-05T09:49:12.287Z,45.59
2022-11-05T09:51:40.647Z,45.88
2022-11-05T09:54:06.950Z,45.63
2022-11-05T09:56:34.760Z,45.93
2022-11-05T09:59:02.978Z,45.75
2022-11-05T10:01:31.906Z,45.71
2022-11-05T10:03:59.873Z,45.80
2022-11-05T10:06:27.070Z,45.44
2022-11-05T10:09:14.763Z,45.55
2022-11-05T10:11:53.782Z,45.77
2022-11-05T10:14:43.817Z,45.34
2022-11-05T10:17:10.051Z,45.21
2022-11-05T10:19:42.080Z,45.43
2022-11-05T10:22:13.208Z,45.11
2022-11-05T10:24:41.624Z,45.39
2022-11-05T10:27:11.184Z,45.10
2022-11-05T10:29:37.623Z,45.47
2022-11-05T10:32:05.730Z,45.44
2022-11-05T10:34:33.666Z,45.51
2022-11-05T10:37:00.220Z,45.12
2022-11-05T10:39:27.851Z,45.14
2022-11-05T10:41:54.171Z,45.23
2022-11-05T10:44:31.507Z,45.29
2022-11-05T10:47:06.299Z,45.28
2022-11-05T10:49:42.450Z,45.53
2022-11-05T10:52:21.493Z,45.57
2022-11-05T10:54:48.872Z,45.22
2022-11-05T10:57:29.226Z,45.50
2022-11-05T11:00:18.230Z,45.38
2022-11-05T11:02:47.289Z,45.51
2022-11-05T11:05:22.448Z,45.56
2022-11-05T11:08:21.682Z,45.33
2022-11-05T11:10:48.093Z,45.44
2022-11-05T11:13:20.561Z,45.68
2022-11-05T11:15:46.899Z,45.25
2022-11-05T11:18:26.433Z,45.38
2022-11-05T11:20:52.868Z,45.04
2022-11-05T11:23:20.293Z,44.95
2022-11-05T11:25:48.008Z,44.77
2022-11-05T11:28:20.207Z,43.42
2022-11-05T11:30:47.982Z,43.89
2022-11-05T11:33:23.949Z,44.14
2022-11-05T11:35:50.488Z,43.90
2022-11-05T11:38:17.201Z,43.75
2022-11-05T11:40:44.109Z,43.86
2022-11-05T11:43:30.532Z,44.08
2022-11-05T11:46:03.784Z,43.82
2022-11-05T11:48:34.478Z,43.99
2022-11-05T11:51:15.356Z,44.02
2022-11-05T11:53:41.608Z,43.98
2022-11-05T11:56:18.715Z,43.69
2022-11-05T11:58:45.042Z,43.86
2022-11-05T12:01:32.172Z,43.72
2022-11-05T12:04:09.605Z,44.11
2022-11-05T12:07:02.667Z,43.76
2022-11-05T12:09:49.748Z,43.58
2022-11-05T12:12:17.822Z,43.65
2022-11-05T12:14:56.509Z,43.65
2022-11-05T12:17:23.187Z,43.92
2022-11-05T12:20:01.252Z,44.09
2022-11-05T12:22:36.774Z,43.88
2022-11-05T12:25:13.156Z,44.13
2022-11-05T12:27:58.475Z,44.02
2022-11-05T12:30:37.941Z,44.24
2022-11-05T12:33:15.263Z,44.25
2022-11-05T12:35:54.842Z,44.13
2022-11-05T12:38:33.213Z,43.97
2022-11-05T12:41:15.468Z,43.87
2022-11-05T12:43:47.775Z,43.52
2022-11-05T12:46:40.554Z,43.80
2022-11-05T12:49:30.765Z,43.77
2022-11-05T12:51:59.901Z,43.34
2022-11-05T12:54:26.195Z,43.47
2022-11-05T12:57:01.394Z,43.47
2022-11-05T12:59:36.403Z,43.23
2022-11-05T13:02:02.888Z,43.37
2022-11-05T13:04:35.865Z,43.13
2022-11-05T13:07:04.117Z,43.23
2022-11-05T13:09:41.493Z,43.41
2022-11-05T13:12:13.098Z,43.30
2022-11-05T13:14:45.285Z,43.26
2022-11-05T13:17:14.752Z,43.63
2022-11-05T13:19:46.480Z,43.35
2022-11-05T13:22:31.908Z,43.08
2022-11-05T13:25:01.624Z,43.56
2022-11-05T13:27:40.507Z,43.31
2022-11-05T13:30:09.591Z,43.28
2022-11-05T13:32:42.060Z,43.24
2022-11-05T13:35:15.512Z,43.16
2022-11-05T13:38:02.026Z,43.27
2022-11-05T13:40:41.280Z,42.88
2022-11-05T13:43:16.171Z,43.20
2022-11-05T13:45:42.419Z,43.33
2022-11-05T13:48:20.921Z,42.83
2022-11-05T13:50:56.288Z,42.70
2022-11-05T13:53:31.877Z,43.02
2022-11-05T13:56:10.642Z,42.84
2022-11-05T13:58:49.678Z,43.01
2022-11-05T14:01:27.844Z,43.00
2022-11-05T14:03:55.793Z,43.12
2022-11-05T14:06:24.152Z,42.81
2022-11-05T14:08:51.427Z,42.94
2022-11-05T14:11:22.528Z,43.01
2022-11-05T14:13:51.398Z,42.55
2022-11-05T14:16:19.397Z,42.76
2022-11-05T14:18:53.147Z,42.67
2022-11-05T14:21:25.331Z,43.07
2022-11-05T14:24:10.639Z,42.70
2022-11-05T14:26:36.916Z,42.85
2022-11-05T14:29:03.147Z,42.80
2022-11-05T14:31:54.332Z,42.99
2022-11-05T14:34:19.277Z,42.84
2022-11-05T14:37:05.801Z,42.83
2022-11-05T14:39:32.580Z,42.78
2022-11-05T14:42:37.439Z,42.69
2022-11-05T14:45:22.401Z,42.65
2022-11-05T14:47:55.422Z,42.56
2022-11-05T14:50:21.712Z,42.46
2022-11-05T14:52:53.951Z,42.40
2022-11-05T14:55:26.244Z,42.58
2022-11-05T14:57:52.655Z,42.41
2022-11-05T15:00:28.068Z,42.47
2022-11-05T15:03:00.823Z,42.47
2022-11-05T15:05:37.214Z,42.52
2022-11-05T15:08:21.958Z,42.56
2022-11-05T15:10:49.095Z,42.64
2022-11-05T15:13:25.559Z,42.56
2022-11-05T15:15:52.456Z,42.72
2022-11-05T15:18:29.269Z,42.85
2022-11-05T15:20:57.391Z,42.66
2022-11-05T15:23:25.173Z,42.95
2022-11-05T15:26:11.586Z,42.63
2022-11-05T15:28:45.935Z,42.73
2022-11-05T15:31:13.076Z,43.04
2022-11-05T15:33:40.729Z,43.16
2022-11-05T15:36:11.062Z,42.73
2022-11-05T15:38:38.135Z,42.79
2022-11-05T15:41:17.242Z,42.89
2022-11-05T15:43:48.209Z,43.18
2022-11-05T15:46:16.049Z,42.97
2022-11-05T15:48:45.498Z,42.84
2022-11-05T15:51:13.044Z,43.24
2022-11-05T15:54:02.239Z,42.98
2022-11-05T15:56:33.983Z,42.70
2022-11-05T15:59:00.253Z,42.91
2022-11-05T16:01:28.053Z,42.88
2022-11-05T16:03:56.621Z,43.27
2022-11-05T16:08:50.257Z,43.34
2022-11-05T16:11:24.995Z,43.20
2022-11-05T16:13:51.860Z,43.55
2022-11-05T16:16:18.162Z,43.47
2022-11-05T16:18:45.458Z,43.82
2022-11-05T16:21:23.185Z,43.83
2022-11-05T16:23:55.112Z,43.96
2022-11-05T16:27:02.319Z,43.87
2022-11-05T16:29:32.074Z,43.85
2022-11-05T16:32:02.210Z,44.17
2022-11-05T16:34:41.355Z,44.06
2022-11-05T16:37:13.492Z,43.98
2022-11-05T16:39:40.478Z,43.97
2022-11-05T16:42:33.058Z,44.51
2022-11-05T16:44:59.738Z,44.23
2022-11-05T16:47:26.475Z,44.01
2022-11-05T16:49:52.972Z,44.39
2022-11-05T16:52:19.298Z,44.11
2022-11-05T16:54:45.654Z,44.42
2022-11-05T16:57:27.503Z,44.40
2022-11-05T16:59:55.149Z,44.33
2022-11-05T17:02:22.053Z,44.42
2022-11-05T17:04:48.630Z,44.30
2022-11-05T17:07:15.461Z,44.50
2022-11-05T17:09:43.385Z,44.43
2022-11-05T17:12:13.154Z,44.17
2022-11-05T17:14:39.702Z,44.14
2022-11-05T17:17:06.861Z,44.20
2022-11-05T17:19:34.342Z,44.41
2022-11-05T17:22:00.708Z,44.52
2022-11-05T17:24:27.068Z,44.42
2022-11-05T17:26:53.495Z,44.25
2022-11-05T17:29:19.836Z,44.48
2022-11-05T17:31:46.220Z,44.04
2022-11-05T17:34:12.988Z,44.27
2022-11-05T17:36:39.517Z,44.32
2022-11-05T17:39:05.926Z,44.34
2022-11-05T17:41:32.310Z,44.13
2022-11-05T17:43:58.682Z,44.23
2022-11-05T17:46:25.053Z,44.03
2022-11-05T17:48:51.572Z,44.05
2022-11-05T17:51:19.802Z,43.99
2022-11-05T17:53:52.111Z,44.12
2022-11-05T17:56:32.246Z,44.12
2022-11-05T17:59:00.785Z,44.00
2022-11-05T18:01:35.686Z,44.16
2022-11-05T18:04:08.275Z,44.07
2022-11-05T18:06:39.734Z,44.03
2022-11-05T18:09:07.413Z,44.00
2022-11-05T18:11:37.189Z,44.11
2022-11-05T18:14:03.872Z,43.93
2022-11-05T18:16:30.722Z,44.01
2022-11-05T18:18:57.278Z,44.08
2022-11-05T18:21:23.729Z,43.74
2022-11-05T18:23:52.391Z,43.82
2022-11-05T18:26:19.332Z,43.75
2022-11-05T18:28:46.334Z,43.57
2022-11-05T18:31:20.805Z,43.66
2022-11-05T18:33:50.880Z,43.57
2022-11-05T18:36:21.149Z,43.64
2022-11-05T18:38:48.652Z,43.77
2022-11-05T18:41:15.387Z,43.62
2022-11-05T18:43:42.249Z,43.75
2022-11-05T18:46:29.291Z,43.59
2022-11-05T18:48:59.559Z,43.63
2022-11-05T18:51:26.549Z,43.66
2022-11-05T18:53:54.509Z,43.37
2022-11-05T18:56:21.458Z,43.59
2022-11-05T18:58:47.886Z,43.48
2022-11-05T19:01:16.578Z,43.53
2022-11-05T19:03:43.524Z,43.71
2022-11-05T19:06:10.238Z,43.66
2022-11-05T19:08:37.069Z,43.46
2022-11-05T19:11:09.753Z,43.35
2022-11-05T19:13:36.445Z,43.58
2022-11-05T19:16:08.097Z,43.38
2022-11-05T19:18:35.066Z,43.32
2022-11-05T19:21:01.973Z,43.36
2022-11-05T19:23:28.328Z,43.45
2022-11-05T19:25:54.873Z,43.42
2022-11-05T19:28:21.471Z,43.54
2022-11-05T19:30:47.922Z,43.49
2022-11-05T19:33:14.326Z,43.24
2022-11-05T19:35:41.789Z,43.65
2022-11-05T19:38:08.120Z,43.62
2022-11-05T19:40:36.598Z,43.65
2022-11-05T19:43:03.021Z,43.46
2022-11-05T19:45:44.018Z,43.69
2022-11-05T19:48:16.154Z,43.57
2022-11-05T19:50:45.256Z,43.61
2022-11-05T19:53:11.749Z,43.32
2022-11-05T19:55:41.807Z,43.53
2022-11-05T19:58:08.911Z,43.66
2022-11-05T20:00:35.450Z,43.78
2022-11-05T20:03:02.508Z,43.66
2022-11-05T20:05:28.889Z,43.70
2022-11-05T20:07:55.784Z,43.77
2022-11-05T20:10:22.275Z,43.76
2022-11-05T20:12:48.990Z,43.77
2022-11-05T20:15:15.353Z,43.92
2022-11-05T20:17:41.739Z,44.05
2022-11-05T20:20:08.574Z,44.00
2022-11-05T20:22:34.918Z,43.88
2022-11-05T20:25:01.261Z,43.80
2022-11-05T20:27:28.569Z,43.90
2022-11-05T20:29:55.945Z,43.80
2022-11-05T20:32:22.813Z,43.81
2022-11-05T20:34:49.171Z,43.95
2022-11-05T20:37:15.558Z,44.00
2022-11-05T20:39:41.950Z,43.99
2022-11-05T20:42:08.259Z,43.94
2022-11-05T20:44:34.582Z,44.10
2022-11-05T20:47:01.161Z,44.29
2022-11-05T20:49:27.590Z,44.07
2022-11-05T20:51:55.967Z,44.14
2022-11-05T20:54:22.501Z,44.14
2022-11-05T20:56:48.979Z,43.89
2022-11-05T20:59:15.503Z,43.91
2022-11-05T21:01:42.069Z,44.03
2022-11-05T21:04:08.456Z,44.19
2022-11-05T21:06:35.982Z,44.13
2022-11-05T21:09:03.989Z,44.23
2022-11-05T21:11:50.405Z,43.95
2022-11-05T21:14:16.836Z,43.78
2022-11-05T21:16:43.321Z,44.31
2022-11-05T21:19:09.773Z,44.22
2022-11-05T21:21:40.921Z,44.12
2022-11-05T21:24:09.199Z,44.31
2022-11-05T21:26:35.554Z,44.09
2022-11-05T21:29:02.104Z,44.28
2022-11-05T21:31:28.644Z,44.03
2022-11-05T21:33:55.443Z,44.15
2022-11-05T21:36:22.282Z,44.44
2022-11-05T21:38:48.567Z,44.00
2022-11-05T21:41:15.682Z,44.11
2022-11-05T21:43:42.720Z,44.15
2022-11-05T21:46:12.198Z,44.03
2022-11-05T21:48:39.305Z,44.19
2022-11-05T21:51:24.678Z,44.15
2022-11-05T21:54:09.555Z,44.42
2022-11-05T21:56:54.864Z,44.04
2022-11-05T21:59:43.517Z,44.17
2022-11-05T22:02:13.203Z,44.26
2022-11-05T22:04:42.309Z,44.20
2022-11-05T22:07:10.920Z,44.25
2022-11-05T22:09:37.390Z,44.34
2022-11-05T22:12:04.600Z,44.10
2022-11-05T22:14:31.996Z,44.12
2022-11-05T22:16:58.838Z,44.07
2022-11-05T22:19:26.167Z,44.01
2022-11-05T22:21:53.086Z,44.33
2022-11-05T22:24:20.718Z,44.37
2022-11-05T22:26:48.010Z,44.22
2022-11-05T22:29:14.525Z,44.45
2022-11-05T22:31:41.265Z,44.40
2022-11-05T22:34:11.603Z,44.44
2022-11-05T22:36:38.177Z,44.27
2022-11-05T22:39:05.406Z,44.45
2022-11-05T22:41:34.136Z,44.43
2022-11-05T22:44:00.549Z,44.68
2022-11-05T22:46:27.332Z,44.82
2022-11-05T22:48:53.915Z,44.77
2022-11-05T22:51:22.974Z,44.75
2022-11-05T22:53:50.031Z,44.70
2022-11-05T22:56:20.117Z,44.71
2022-11-05T22:58:47.294Z,44.74
2022-11-05T23:01:15.714Z,44.57
2022-11-05T23:03:43.783Z,44.50
2022-11-05T23:06:33.000Z,44.80
2022-11-05T23:09:19.192Z,44.65
2022-11-05T23:11:50.126Z,44.79
2022-11-05T23:14:16.665Z,44.60
2022-11-05T23:17:02.461Z,44.80
2022-11-05T23:19:48.511Z,44.78
2022-11-05T23:22:45.266Z,44.79
2022-11-05T23:25:17.116Z,44.61
2022-11-05T23:27:45.368Z,44.70
2022-11-05T23:30:18.292Z,44.80
2022-11-05T23:32:45.001Z,44.60
2022-11-05T23:35:11.779Z,44.96
2022-11-05T23:37:57.003Z,44.57
2022-11-05T23:40:51.683Z,44.95
2022-11-05T23:43:36.739Z,44.73
2022-11-05T23:46:21.957Z,44.74
2022-11-05T23:48:48.294Z,44.82
2022-11-05T23:51:14.884Z,44.74
2022-11-05T23:53:41.551Z,45.00
2022-11-05T23:56:10.562Z,45.16
2022-11-05T23:58:38.854Z,45.19
